sensor_id;sensor_type;location;lat;lon;timestamp;P1;durP1;ratioP1;P2;durP2;ratioP2
11090;SDS011;5599;52.210;21.046;2022-11-20T00:01:53;44.73;;;29.30;;
11090;SDS011;5599;52.210;21.046;2022-11-20T00:04:23;47.40;;;29.13;;
11090;SDS011;5599;52.210;21.046;2022-11-20T00:06:52;48.77;;;29.60;;
11090;SDS011;5599;52.210;21.046;2022-11-20T00:09:22;41.67;;;27.50;;
11090;SDS011;5599;52.210;21.046;2022-11-20T00:11:52;46.97;;;29.00;;
11090;SDS011;5599;52.210;21.046;2022-11-20T00:14:21;47.17;;;28.70;;
11090;SDS011;5599;52.210;21.046;2022-11-20T00:16:53;45.73;;;28.17;;
11090;SDS011;5599;52.210;21.046;2022-11-20T00:19:23;49.80;;;31.20;;
11090;SDS011;5599;52.210;21.046;2022-11-20T00:21:53;47.30;;;29.40;;
11090;SDS011;5599;52.210;21.046;2022-11-20T00:24:22;41.70;;;27.30;;
11090;SDS011;5599;52.210;21.046;2022-11-20T00:26:51;48.10;;;29.47;;
11090;SDS011;5599;52.210;21.046;2022-11-20T00:29:21;43.93;;;28.33;;
11090;SDS011;5599;52.210;21.046;2022-11-20T00:31:50;45.10;;;29.63;;
11090;SDS011;5599;52.210;21.046;2022-11-20T00:34:21;43.97;;;27.63;;
11090;SDS011;5599;52.210;21.046;2022-11-20T00:36:50;44.03;;;29.83;;
11090;SDS011;5599;52.210;21.046;2022-11-20T00:39:19;42.40;;;26.80;;
11090;SDS011;5599;52.210;21.046;2022-11-20T00:41:49;49.53;;;29.23;;
11090;SDS011;5599;52.210;21.046;2022-11-20T00:44:18;46.87;;;28.97;;
11090;SDS011;5599;52.210;21.046;2022-11-20T00:46:48;47.63;;;28.77;;
11090;SDS011;5599;52.210;21.046;2022-11-20T00:49:17;44.27;;;27.43;;
11090;SDS011;5599;52.210;21.046;2022-11-20T00:51:48;42.97;;;27.47;;
11090;SDS011;5599;52.210;21.046;2022-11-20T00:54:17;49.70;;;28.67;;
11090;SDS011;5599;52.210;21.046;2022-11-20T00:56:46;45.43;;;27.97;;
11090;SDS011;5599;52.210;21.046;2022-11-20T00:59:16;40.97;;;26.33;;
11090;SDS011;5599;52.210;21.046;2022-11-20T01:01:46;44.63;;;28.77;;
11090;SDS011;5599;52.210;21.046;2022-11-20T01:04:15;46.47;;;29.33;;
11090;SDS011;5599;52.210;21.046;2022-11-20T01:06:45;44.20;;;27.20;;
11090;SDS011;5599;52.210;21.046;2022-11-20T01:09:16;43.83;;;28.73;;
11090;SDS011;5599;52.210;21.046;2022-11-20T01:11:46;51.37;;;27.57;;
11090;SDS011;5599;52.210;21.046;2022-11-20T01:14:17;45.80;;;28.43;;
11090;SDS011;5599;52.210;21.046;2022-11-20T01:16:49;47.40;;;28.63;;
11090;SDS011;5599;52.210;21.046;2022-11-20T01:19:19;46.67;;;28.13;;
11090;SDS011;5599;52.210;21.046;2022-11-20T01:21:51;43.83;;;28.73;;
11090;SDS011;5599;52.210;21.046;2022-11-20T01:24:24;43.03;;;28.40;;
11090;SDS011;5599;52.210;21.046;2022-11-20T01:26:54;42.20;;;27.60;;
11090;SDS011;5599;52.210;21.046;2022-11-20T01:29:24;44.17;;;28.27;;
11090;SDS011;5599;52.210;21.046;2022-11-20T01:31:53;43.67;;;28.17;;
11090;SDS011;5599;52.210;21.046;2022-11-20T01:34:23;44.13;;;26.77;;
11090;SDS011;5599;52.210;21.046;2022-11-20T01:36:52;45.23;;;29.13;;
11090;SDS011;5599;52.210;21.046;2022-11-20T01:39:24;47.03;;;29.57;;
11090;SDS011;5599;52.210;21.046;2022-11-20T01:41:55;43.33;;;27.10;;
11090;SDS011;5599;52.210;21.046;2022-11-20T01:44:45;45.90;;;28.33;;
11090;SDS011;5599;52.210;21.046;2022-11-20T01:47:21;42.93;;;27.37;;
11090;SDS011;5599;52.210;21.046;2022-11-20T01:49:56;41.27;;;26.00;;
11090;SDS011;5599;52.210;21.046;2022-11-20T01:52:30;43.43;;;27.73;;
11090;SDS011;5599;52.210;21.046;2022-11-20T01:55:06;47.73;;;28.33;;
11090;SDS011;5599;52.210;21.046;2022-11-20T01:57:38;45.13;;;29.10;;
11090;SDS011;5599;52.210;21.046;2022-11-20T02:00:09;40.67;;;27.37;;
11090;SDS011;5599;52.210;21.046;2022-11-20T02:02:40;46.70;;;29.07;;
11090;SDS011;5599;52.210;21.046;2022-11-20T02:05:14;43.47;;;28.80;;
11090;SDS011;5599;52.210;21.046;2022-11-20T02:07:50;40.97;;;28.07;;
11090;SDS011;5599;52.210;21.046;2022-11-20T02:10:24;42.23;;;26.77;;
11090;SDS011;5599;52.210;21.046;2022-11-20T02:12:55;42.20;;;27.33;;
11090;SDS011;5599;52.210;21.046;2022-11-20T02:15:42;46.47;;;30.13;;
11090;SDS011;5599;52.210;21.046;2022-11-20T02:18:12;45.90;;;27.00;;
11090;SDS011;5599;52.210;21.046;2022-11-20T02:20:45;44.20;;;27.33;;
11090;SDS011;5599;52.210;21.046;2022-11-20T02:23:16;43.80;;;26.73;;
11090;SDS011;5599;52.210;21.046;2022-11-20T02:25:54;45.93;;;28.77;;
11090;SDS011;5599;52.210;21.046;2022-11-20T02:28:24;43.37;;;26.57;;
11090;SDS011;5599;52.210;21.046;2022-11-20T02:30:53;42.70;;;27.83;;
11090;SDS011;5599;52.210;21.046;2022-11-20T02:33:22;42.37;;;27.67;;
11090;SDS011;5599;52.210;21.046;2022-11-20T02:35:52;40.50;;;26.43;;
11090;SDS011;5599;52.210;21.046;2022-11-20T02:38:21;40.77;;;26.80;;
11090;SDS011;5599;52.210;21.046;2022-11-20T02:40:50;44.27;;;26.73;;
11090;SDS011;5599;52.210;21.046;2022-11-20T02:43:23;41.73;;;26.80;;
11090;SDS011;5599;52.210;21.046;2022-11-20T02:45:52;37.50;;;25.80;;
11090;SDS011;5599;52.210;21.046;2022-11-20T02:48:21;41.07;;;26.87;;
11090;SDS011;5599;52.210;21.046;2022-11-20T02:50:51;39.77;;;26.40;;
11090;SDS011;5599;52.210;21.046;2022-11-20T02:53:20;42.13;;;27.73;;
11090;SDS011;5599;52.210;21.046;2022-11-20T02:55:49;38.67;;;26.93;;
11090;SDS011;5599;52.210;21.046;2022-11-20T02:58:18;41.43;;;25.80;;
11090;SDS011;5599;52.210;21.046;2022-11-20T03:00:52;43.07;;;27.23;;
11090;SDS011;5599;52.210;21.046;2022-11-20T03:03:22;43.27;;;27.37;;
11090;SDS011;5599;52.210;21.046;2022-11-20T03:05:53;42.40;;;26.67;;
11090;SDS011;5599;52.210;21.046;2022-11-20T03:08:23;44.87;;;28.47;;
11090;SDS011;5599;52.210;21.046;2022-11-20T03:10:53;43.67;;;28.87;;
11090;SDS011;5599;52.210;21.046;2022-11-20T03:13:22;39.30;;;27.10;;
11090;SDS011;5599;52.210;21.046;2022-11-20T03:15:55;42.00;;;28.30;;
11090;SDS011;5599;52.210;21.046;2022-11-20T03:18:27;44.90;;;28.87;;
11090;SDS011;5599;52.210;21.046;2022-11-20T03:20:57;42.27;;;27.87;;
11090;SDS011;5599;52.210;21.046;2022-11-20T03:23:28;45.40;;;28.37;;
11090;SDS011;5599;52.210;21.046;2022-11-20T03:26:09;46.90;;;29.23;;
11090;SDS011;5599;52.210;21.046;2022-11-20T03:28:40;45.80;;;28.07;;
11090;SDS011;5599;52.210;21.046;2022-11-20T03:31:12;43.43;;;28.27;;
11090;SDS011;5599;52.210;21.046;2022-11-20T03:33:42;49.07;;;28.93;;
11090;SDS011;5599;52.210;21.046;2022-11-20T03:36:12;44.83;;;27.77;;
11090;SDS011;5599;52.210;21.046;2022-11-20T03:38:42;44.03;;;26.97;;
11090;SDS011;5599;52.210;21.046;2022-11-20T03:41:12;47.57;;;29.60;;
11090;SDS011;5599;52.210;21.046;2022-11-20T03:43:46;48.37;;;28.23;;
11090;SDS011;5599;52.210;21.046;2022-11-20T03:46:17;43.43;;;28.80;;
11090;SDS011;5599;52.210;21.046;2022-11-20T03:48:47;42.57;;;27.70;;
11090;SDS011;5599;52.210;21.046;2022-11-20T03:51:18;40.47;;;27.87;;
11090;SDS011;5599;52.210;21.046;2022-11-20T03:53:49;44.47;;;29.10;;
11090;SDS011;5599;52.210;21.046;2022-11-20T03:56:20;41.23;;;27.87;;
11090;SDS011;5599;52.210;21.046;2022-11-20T03:58:51;47.20;;;28.90;;
11090;SDS011;5599;52.210;21.046;2022-11-20T04:01:23;44.17;;;29.33;;
11090;SDS011;5599;52.210;21.046;2022-11-20T04:03:54;43.73;;;27.80;;
11090;SDS011;5599;52.210;21.046;2022-11-20T04:06:25;49.63;;;31.03;;
11090;SDS011;5599;52.210;21.046;2022-11-20T04:08:55;46.10;;;28.00;;
11090;SDS011;5599;52.210;21.046;2022-11-20T04:11:26;48.60;;;29.63;;
11090;SDS011;5599;52.210;21.046;2022-11-20T04:13:57;44.27;;;28.67;;
11090;SDS011;5599;52.210;21.046;2022-11-20T04:16:30;43.73;;;28.83;;
11090;SDS011;5599;52.210;21.046;2022-11-20T04:19:01;45.43;;;29.50;;
11090;SDS011;5599;52.210;21.046;2022-11-20T04:21:32;46.80;;;30.60;;
11090;SDS011;5599;52.210;21.046;2022-11-20T04:24:02;49.67;;;29.67;;
11090;SDS011;5599;52.210;21.046;2022-11-20T04:26:31;46.90;;;29.60;;
11090;SDS011;5599;52.210;21.046;2022-11-20T04:29:01;45.83;;;30.27;;
11090;SDS011;5599;52.210;21.046;2022-11-20T04:31:33;47.77;;;29.50;;
11090;SDS011;5599;52.210;21.046;2022-11-20T04:34:04;46.40;;;29.07;;
11090;SDS011;5599;52.210;21.046;2022-11-20T04:36:35;46.03;;;28.57;;
11090;SDS011;5599;52.210;21.046;2022-11-20T04:39:05;48.17;;;30.30;;
11090;SDS011;5599;52.210;21.046;2022-11-20T04:41:35;47.97;;;29.00;;
11090;SDS011;5599;52.210;21.046;2022-11-20T04:44:05;46.43;;;29.37;;
11090;SDS011;5599;52.210;21.046;2022-11-20T04:46:37;47.77;;;30.80;;
11090;SDS011;5599;52.210;21.046;2022-11-20T04:49:08;47.63;;;28.83;;
11090;SDS011;5599;52.210;21.046;2022-11-20T04:51:39;45.90;;;28.80;;
11090;SDS011;5599;52.210;21.046;2022-11-20T04:54:08;44.80;;;28.23;;
11090;SDS011;5599;52.210;21.046;2022-11-20T04:56:39;46.40;;;30.17;;
11090;SDS011;5599;52.210;21.046;2022-11-20T04:59:09;42.63;;;27.63;;
11090;SDS011;5599;52.210;21.046;2022-11-20T05:01:39;40.57;;;27.73;;
11090;SDS011;5599;52.210;21.046;2022-11-20T05:04:09;44.13;;;27.70;;
11090;SDS011;5599;52.210;21.046;2022-11-20T05:06:38;41.50;;;26.93;;
11090;SDS011;5599;52.210;21.046;2022-11-20T05:09:07;45.97;;;27.53;;
11090;SDS011;5599;52.210;21.046;2022-11-20T05:11:36;42.67;;;27.20;;
11090;SDS011;5599;52.210;21.046;2022-11-20T05:14:05;42.40;;;28.43;;
11090;SDS011;5599;52.210;21.046;2022-11-20T05:16:34;47.93;;;29.73;;
11090;SDS011;5599;52.210;21.046;2022-11-20T05:19:05;44.17;;;27.60;;
11090;SDS011;5599;52.210;21.046;2022-11-20T05:21:35;47.00;;;28.07;;
11090;SDS011;5599;52.210;21.046;2022-11-20T05:24:05;45.90;;;29.20;;
11090;SDS011;5599;52.210;21.046;2022-11-20T05:26:34;40.77;;;26.20;;
11090;SDS011;5599;52.210;21.046;2022-11-20T05:29:03;43.63;;;27.60;;
11090;SDS011;5599;52.210;21.046;2022-11-20T05:31:33;41.37;;;27.80;;
11090;SDS011;5599;52.210;21.046;2022-11-20T05:34:03;39.33;;;26.27;;
11090;SDS011;5599;52.210;21.046;2022-11-20T05:36:33;46.57;;;27.83;;
11090;SDS011;5599;52.210;21.046;2022-11-20T05:39:03;43.43;;;28.17;;
11090;SDS011;5599;52.210;21.046;2022-11-20T05:41:32;45.73;;;28.47;;
11090;SDS011;5599;52.210;21.046;2022-11-20T05:44:02;43.93;;;28.00;;
11090;SDS011;5599;52.210;21.046;2022-11-20T05:46:32;41.10;;;27.67;;
11090;SDS011;5599;52.210;21.046;2022-11-20T05:49:01;41.80;;;27.07;;
11090;SDS011;5599;52.210;21.046;2022-11-20T05:51:30;41.27;;;27.30;;
11090;SDS011;5599;52.210;21.046;2022-11-20T05:54:01;44.57;;;27.83;;
11090;SDS011;5599;52.210;21.046;2022-11-20T05:56:30;40.80;;;26.53;;
11090;SDS011;5599;52.210;21.046;2022-11-20T05:58:59;36.37;;;26.47;;
11090;SDS011;5599;52.210;21.046;2022-11-20T06:01:29;40.97;;;26.97;;
11090;SDS011;5599;52.210;21.046;2022-11-20T06:03:58;41.83;;;25.97;;
11090;SDS011;5599;52.210;21.046;2022-11-20T06:06:27;39.10;;;26.03;;
11090;SDS011;5599;52.210;21.046;2022-11-20T06:08:57;42.77;;;26.70;;
11090;SDS011;5599;52.210;21.046;2022-11-20T06:11:28;41.03;;;26.37;;
11090;SDS011;5599;52.210;21.046;2022-11-20T06:13:57;39.93;;;25.37;;
11090;SDS011;5599;52.210;21.046;2022-11-20T06:16:26;40.17;;;25.80;;
11090;SDS011;5599;52.210;21.046;2022-11-20T06:18:55;42.93;;;26.63;;
11090;SDS011;5599;52.210;21.046;2022-11-20T06:21:25;39.93;;;26.03;;
11090;SDS011;5599;52.210;21.046;2022-11-20T06:23:54;39.03;;;27.00;;
11090;SDS011;5599;52.210;21.046;2022-11-20T06:26:24;40.60;;;26.30;;
11090;SDS011;5599;52.210;21.046;2022-11-20T06:28:56;40.33;;;27.63;;
11090;SDS011;5599;52.210;21.046;2022-11-20T06:31:25;37.03;;;26.07;;
11090;SDS011;5599;52.210;21.046;2022-11-20T06:33:55;42.67;;;27.27;;
11090;SDS011;5599;52.210;21.046;2022-11-20T06:36:24;45.53;;;28.37;;
11090;SDS011;5599;52.210;21.046;2022-11-20T06:38:53;41.27;;;27.00;;
11090;SDS011;5599;52.210;21.046;2022-11-20T06:41:22;42.30;;;27.10;;
11090;SDS011;5599;52.210;21.046;2022-11-20T06:43:52;43.70;;;26.37;;
11090;SDS011;5599;52.210;21.046;2022-11-20T06:46:23;40.47;;;26.97;;
11090;SDS011;5599;52.210;21.046;2022-11-20T06:48:52;44.43;;;28.00;;
11090;SDS011;5599;52.210;21.046;2022-11-20T06:51:21;41.90;;;26.80;;
11090;SDS011;5599;52.210;21.046;2022-11-20T06:53:51;46.87;;;28.60;;
11090;SDS011;5599;52.210;21.046;2022-11-20T06:56:21;40.30;;;27.10;;
11090;SDS011;5599;52.210;21.046;2022-11-20T06:58:50;40.73;;;27.47;;
11090;SDS011;5599;52.210;21.046;2022-11-20T07:01:19;40.77;;;26.80;;
11090;SDS011;5599;52.210;21.046;2022-11-20T07:03:53;41.20;;;27.50;;
11090;SDS011;5599;52.210;21.046;2022-11-20T07:06:22;38.93;;;26.77;;
11090;SDS011;5599;52.210;21.046;2022-11-20T07:08:52;42.50;;;27.60;;
11090;SDS011;5599;52.210;21.046;2022-11-20T07:11:21;39.50;;;27.10;;
11090;SDS011;5599;52.210;21.046;2022-11-20T07:13:50;42.20;;;26.93;;
11090;SDS011;5599;52.210;21.046;2022-11-20T07:16:21;45.17;;;27.07;;
11090;SDS011;5599;52.210;21.046;2022-11-20T07:18:51;45.40;;;28.77;;
11090;SDS011;5599;52.210;21.046;2022-11-20T07:21:25;42.60;;;27.73;;
11090;SDS011;5599;52.210;21.046;2022-11-20T07:23:54;41.77;;;27.97;;
11090;SDS011;5599;52.210;21.046;2022-11-20T07:26:24;42.33;;;27.07;;
11090;SDS011;5599;52.210;21.046;2022-11-20T07:28:53;36.93;;;25.57;;
11090;SDS011;5599;52.210;21.046;2022-11-20T07:31:22;40.87;;;26.53;;
11090;SDS011;5599;52.210;21.046;2022-11-20T07:33:55;40.70;;;26.97;;
11090;SDS011;5599;52.210;21.046;2022-11-20T07:36:24;42.77;;;26.87;;
11090;SDS011;5599;52.210;21.046;2022-11-20T07:38:53;34.03;;;23.70;;
11090;SDS011;5599;52.210;21.046;2022-11-20T07:41:22;37.30;;;26.80;;
11090;SDS011;5599;52.210;21.046;2022-11-20T07:43:52;39.60;;;26.10;;
11090;SDS011;5599;52.210;21.046;2022-11-20T07:46:22;38.37;;;25.77;;
11090;SDS011;5599;52.210;21.046;2022-11-20T07:48:52;32.67;;;25.33;;
11090;SDS011;5599;52.210;21.046;2022-11-20T07:51:24;33.43;;;25.77;;
11090;SDS011;5599;52.210;21.046;2022-11-20T07:53:57;36.20;;;26.13;;
11090;SDS011;5599;52.210;21.046;2022-11-20T07:56:27;40.30;;;26.83;;
11090;SDS011;5599;52.210;21.046;2022-11-20T07:58:56;35.50;;;26.33;;
11090;SDS011;5599;52.210;21.046;2022-11-20T08:01:25;36.70;;;25.90;;
11090;SDS011;5599;52.210;21.046;2022-11-20T08:03:56;33.63;;;24.97;;
11090;SDS011;5599;52.210;21.046;2022-11-20T08:06:25;33.30;;;24.67;;
11090;SDS011;5599;52.210;21.046;2022-11-20T08:08:55;35.20;;;26.63;;
11090;SDS011;5599;52.210;21.046;2022-11-20T08:11:24;35.73;;;27.27;;
11090;SDS011;5599;52.210;21.046;2022-11-20T08:14:11;35.20;;;25.87;;
11090;SDS011;5599;52.210;21.046;2022-11-20T08:16:41;35.77;;;25.50;;
11090;SDS011;5599;52.210;21.046;2022-11-20T08:19:14;32.97;;;26.80;;
11090;SDS011;5599;52.210;21.046;2022-11-20T08:21:45;37.83;;;26.53;;
11090;SDS011;5599;52.210;21.046;2022-11-20T08:24:14;33.70;;;25.90;;
11090;SDS011;5599;52.210;21.046;2022-11-20T08:26:43;34.90;;;26.87;;
11090;SDS011;5599;52.210;21.046;2022-11-20T08:29:13;36.00;;;27.40;;
11090;SDS011;5599;52.210;21.046;2022-11-20T08:31:43;33.40;;;25.93;;
11090;SDS011;5599;52.210;21.046;2022-11-20T08:34:13;34.20;;;26.63;;
11090;SDS011;5599;52.210;21.046;2022-11-20T08:36:45;36.90;;;28.00;;
11090;SDS011;5599;52.210;21.046;2022-11-20T08:39:14;38.90;;;27.50;;
11090;SDS011;5599;52.210;21.046;2022-11-20T08:41:44;36.33;;;28.07;;
11090;SDS011;5599;52.210;21.046;2022-11-20T08:44:13;37.43;;;28.30;;
11090;SDS011;5599;52.210;21.046;2022-11-20T08:46:43;35.83;;;27.53;;
11090;SDS011;5599;52.210;21.046;2022-11-20T08:49:18;36.10;;;26.70;;
11090;SDS011;5599;52.210;21.046;2022-11-20T08:51:54;36.17;;;26.93;;
11090;SDS011;5599;52.210;21.046;2022-11-20T08:54:29;37.27;;;27.43;;
11090;SDS011;5599;52.210;21.046;2022-11-20T08:57:02;39.23;;;28.50;;
11090;SDS011;5599;52.210;21.046;2022-11-20T08:59:31;35.73;;;26.87;;
11090;SDS011;5599;52.210;21.046;2022-11-20T09:02:21;35.97;;;27.37;;
11090;SDS011;5599;52.210;21.046;2022-11-20T09:05:02;42.30;;;28.03;;
11090;SDS011;5599;52.210;21.046;2022-11-20T09:07:38;38.00;;;27.93;;
11090;SDS011;5599;52.210;21.046;2022-11-20T09:10:11;37.33;;;27.97;;
11090;SDS011;5599;52.210;21.046;2022-11-20T09:12:50;33.77;;;26.70;;
11090;SDS011;5599;52.210;21.046;2022-11-20T09:15:21;38.17;;;27.37;;
11090;SDS011;5599;52.210;21.046;2022-11-20T09:17:56;38.67;;;27.23;;
11090;SDS011;5599;52.210;21.046;2022-11-20T09:23:37;32.33;;;24.47;;
11090;SDS011;5599;52.210;21.046;2022-11-20T09:26:30;36.20;;;26.50;;
11090;SDS011;5599;52.210;21.046;2022-11-20T09:29:03;33.87;;;27.23;;
11090;SDS011;5599;52.210;21.046;2022-11-20T09:31:33;35.20;;;26.87;;
11090;SDS011;5599;52.210;21.046;2022-11-20T09:34:03;35.97;;;27.00;;
11090;SDS011;5599;52.210;21.046;2022-11-20T09:36:34;39.60;;;27.37;;
11090;SDS011;5599;52.210;21.046;2022-11-20T09:39:04;42.53;;;27.97;;
11090;SDS011;5599;52.210;21.046;2022-11-20T09:41:37;37.87;;;27.53;;
11090;SDS011;5599;52.210;21.046;2022-11-20T09:44:20;36.90;;;27.37;;
11090;SDS011;5599;52.210;21.046;2022-11-20T09:47:01;44.90;;;31.87;;
11090;SDS011;5599;52.210;21.046;2022-11-20T09:49:39;34.07;;;26.37;;
11090;SDS011;5599;52.210;21.046;2022-11-20T09:52:25;36.60;;;27.17;;
11090;SDS011;5599;52.210;21.046;2022-11-20T09:55:01;34.13;;;26.80;;
11090;SDS011;5599;52.210;21.046;2022-11-20T09:57:32;38.47;;;27.53;;
11090;SDS011;5599;52.210;21.046;2022-11-20T10:00:06;35.90;;;27.30;;
11090;SDS011;5599;52.210;21.046;2022-11-20T10:02:42;39.67;;;28.17;;
11090;SDS011;5599;52.210;21.046;2022-11-20T10:05:17;38.87;;;28.73;;
11090;SDS011;5599;52.210;21.046;2022-11-20T10:07:52;35.27;;;26.90;;
11090;SDS011;5599;52.210;21.046;2022-11-20T10:10:29;34.77;;;26.43;;
11090;SDS011;5599;52.210;21.046;2022-11-20T10:13:13;37.17;;;27.07;;
11090;SDS011;5599;52.210;21.046;2022-11-20T10:15:56;40.00;;;26.93;;
11090;SDS011;5599;52.210;21.046;2022-11-20T10:18:36;36.47;;;27.60;;
11090;SDS011;5599;52.210;21.046;2022-11-20T10:21:14;38.30;;;27.73;;
11090;SDS011;5599;52.210;21.046;2022-11-20T10:23:59;40.03;;;28.37;;
11090;SDS011;5599;52.210;21.046;2022-11-20T10:26:43;38.33;;;28.77;;
11090;SDS011;5599;52.210;21.046;2022-11-20T10:29:21;37.10;;;27.83;;
11090;SDS011;5599;52.210;21.046;2022-11-20T10:32:00;38.95;;;30.23;;
11090;SDS011;5599;52.210;21.046;2022-11-20T10:34:31;40.10;;;31.03;;
11090;SDS011;5599;52.210;21.046;2022-11-20T10:37:09;35.20;;;26.90;;
11090;SDS011;5599;52.210;21.046;2022-11-20T10:39:47;36.23;;;26.60;;
11090;SDS011;5599;52.210;21.046;2022-11-20T10:42:25;34.60;;;25.33;;
11090;SDS011;5599;52.210;21.046;2022-11-20T10:45:02;39.70;;;26.77;;
11090;SDS011;5599;52.210;21.046;2022-11-20T10:47:41;34.43;;;26.97;;
11090;SDS011;5599;52.210;21.046;2022-11-20T10:50:13;42.60;;;27.30;;
11090;SDS011;5599;52.210;21.046;2022-11-20T10:52:50;38.47;;;27.77;;
11090;SDS011;5599;52.210;21.046;2022-11-20T10:55:27;38.50;;;27.50;;
11090;SDS011;5599;52.210;21.046;2022-11-20T10:58:10;39.60;;;28.03;;
11090;SDS011;5599;52.210;21.046;2022-11-20T11:00:42;38.03;;;27.53;;
11090;SDS011;5599;52.210;21.046;2022-11-20T11:03:17;35.77;;;27.33;;
11090;SDS011;5599;52.210;21.046;2022-11-20T11:05:53;36.07;;;26.57;;
11090;SDS011;5599;52.210;21.046;2022-11-20T11:08:28;33.87;;;25.33;;
11090;SDS011;5599;52.210;21.046;2022-11-20T11:11:07;34.53;;;27.00;;
11090;SDS011;5599;52.210;21.046;2022-11-20T11:13:47;34.83;;;26.93;;
11090;SDS011;5599;52.210;21.046;2022-11-20T11:16:19;36.50;;;26.00;;
11090;SDS011;5599;52.210;21.046;2022-11-20T11:18:50;34.40;;;26.70;;
11090;SDS011;5599;52.210;21.046;2022-11-20T11:21:21;40.87;;;27.30;;
11090;SDS011;5599;52.210;21.046;2022-11-20T11:23:58;34.60;;;26.47;;
11090;SDS011;5599;52.210;21.046;2022-11-20T11:26:55;35.97;;;27.87;;
11090;SDS011;5599;52.210;21.046;2022-11-20T11:29:26;70.37;;;51.57;;
11090;SDS011;5599;52.210;21.046;2022-11-20T11:32:04;35.53;;;26.30;;
11090;SDS011;5599;52.210;21.046;2022-11-20T11:34:35;35.40;;;25.87;;
11090;SDS011;5599;52.210;21.046;2022-11-20T11:37:10;33.00;;;25.87;;
11090;SDS011;5599;52.210;21.046;2022-11-20T11:39:44;34.97;;;26.57;;
11090;SDS011;5599;52.210;21.046;2022-11-20T11:42:39;31.97;;;24.53;;
11090;SDS011;5599;52.210;21.046;2022-11-20T11:45:11;38.60;;;26.53;;
11090;SDS011;5599;52.210;21.046;2022-11-20T11:47:45;37.27;;;26.40;;
11090;SDS011;5599;52.210;21.046;2022-11-20T11:50:17;34.57;;;26.63;;
11090;SDS011;5599;52.210;21.046;2022-11-20T11:52:50;31.83;;;23.93;;
11090;SDS011;5599;52.210;21.046;2022-11-20T11:55:35;34.97;;;26.87;;
11090;SDS011;5599;52.210;21.046;2022-11-20T11:58:16;40.83;;;28.63;;
11090;SDS011;5599;52.210;21.046;2022-11-20T12:00:58;36.87;;;26.70;;
11090;SDS011;5599;52.210;21.046;2022-11-20T12:03:34;41.57;;;26.37;;
11090;SDS011;5599;52.210;21.046;2022-11-20T12:06:06;35.60;;;27.30;;
11090;SDS011;5599;52.210;21.046;2022-11-20T12:08:41;34.07;;;26.63;;
11090;SDS011;5599;52.210;21.046;2022-11-20T12:11:16;35.47;;;26.50;;
11090;SDS011;5599;52.210;21.046;2022-11-20T12:13:54;43.53;;;28.13;;
11090;SDS011;5599;52.210;21.046;2022-11-20T12:16:29;36.20;;;27.13;;
11090;SDS011;5599;52.210;21.046;2022-11-20T12:19:02;34.53;;;26.50;;
11090;SDS011;5599;52.210;21.046;2022-11-20T12:21:38;34.60;;;26.93;;
11090;SDS011;5599;52.210;21.046;2022-11-20T12:24:23;35.93;;;27.67;;
11090;SDS011;5599;52.210;21.046;2022-11-20T12:27:16;34.63;;;25.43;;
11090;SDS011;5599;52.210;21.046;2022-11-20T12:30:10;38.77;;;26.80;;
11090;SDS011;5599;52.210;21.046;2022-11-20T12:32:54;35.57;;;25.30;;
11090;SDS011;5599;52.210;21.046;2022-11-20T12:35:48;34.93;;;25.50;;
11090;SDS011;5599;52.210;21.046;2022-11-20T12:38:42;34.30;;;25.60;;
11090;SDS011;5599;52.210;21.046;2022-11-20T12:41:27;34.87;;;25.70;;
11090;SDS011;5599;52.210;21.046;2022-11-20T12:44:35;35.63;;;26.47;;
11090;SDS011;5599;52.210;21.046;2022-11-20T12:47:42;38.40;;;29.60;;
11090;SDS011;5599;52.210;21.046;2022-11-20T12:50:28;31.23;;;24.23;;
11090;SDS011;5599;52.210;21.046;2022-11-20T12:53:28;36.27;;;26.43;;
11090;SDS011;5599;52.210;21.046;2022-11-20T12:56:09;34.60;;;26.57;;
11090;SDS011;5599;52.210;21.046;2022-11-20T12:58:52;37.47;;;26.73;;
11090;SDS011;5599;52.210;21.046;2022-11-20T13:01:34;34.37;;;27.17;;
11090;SDS011;5599;52.210;21.046;2022-11-20T13:04:17;33.93;;;26.53;;
11090;SDS011;5599;52.210;21.046;2022-11-20T13:06:55;36.57;;;26.47;;
11090;SDS011;5599;52.210;21.046;2022-11-20T13:09:26;37.70;;;27.00;;
11090;SDS011;5599;52.210;21.046;2022-11-20T13:12:02;36.67;;;25.53;;
11090;SDS011;5599;52.210;21.046;2022-11-20T13:14:40;36.43;;;26.07;;
11090;SDS011;5599;52.210;21.046;2022-11-20T13:17:18;34.20;;;24.70;;
11090;SDS011;5599;52.210;21.046;2022-11-20T13:19:55;35.43;;;25.73;;
11090;SDS011;5599;52.210;21.046;2022-11-20T13:22:42;37.40;;;26.63;;
11090;SDS011;5599;52.210;21.046;2022-11-20T13:25:22;38.10;;;26.23;;
11090;SDS011;5599;52.210;21.046;2022-11-20T13:27:54;38.58;;;31.65;;
11090;SDS011;5599;52.210;21.046;2022-11-20T13:30:28;39.22;;;33.65;;
11090;SDS011;5599;52.210;21.046;2022-11-20T13:33:06;34.40;;;25.83;;
11090;SDS011;5599;52.210;21.046;2022-11-20T13:35:41;35.63;;;27.20;;
11090;SDS011;5599;52.210;21.046;2022-11-20T13:38:13;36.10;;;27.23;;
11090;SDS011;5599;52.210;21.046;2022-11-20T13:40:50;36.40;;;26.30;;
11090;SDS011;5599;52.210;21.046;2022-11-20T13:43:49;35.90;;;25.73;;
11090;SDS011;5599;52.210;21.046;2022-11-20T13:46:21;36.93;;;26.43;;
11090;SDS011;5599;52.210;21.046;2022-11-20T13:48:54;37.40;;;25.60;;
11090;SDS011;5599;52.210;21.046;2022-11-20T13:51:31;38.13;;;26.57;;
11090;SDS011;5599;52.210;21.046;2022-11-20T13:54:19;34.63;;;25.33;;
11090;SDS011;5599;52.210;21.046;2022-11-20T13:57:04;37.27;;;26.27;;
11090;SDS011;5599;52.210;21.046;2022-11-20T14:00:03;35.90;;;26.37;;
11090;SDS011;5599;52.210;21.046;2022-11-20T14:02:41;33.97;;;25.97;;
11090;SDS011;5599;52.210;21.046;2022-11-20T14:05:20;36.63;;;26.23;;
11090;SDS011;5599;52.210;21.046;2022-11-20T14:07:55;34.77;;;26.60;;
11090;SDS011;5599;52.210;21.046;2022-11-20T14:10:29;36.23;;;26.77;;
11090;SDS011;5599;52.210;21.046;2022-11-20T14:13:09;36.57;;;27.50;;
11090;SDS011;5599;52.210;21.046;2022-11-20T14:15:39;36.17;;;25.83;;
11090;SDS011;5599;52.210;21.046;2022-11-20T14:18:12;38.10;;;27.83;;
11090;SDS011;5599;52.210;21.046;2022-11-20T14:20:44;38.33;;;28.17;;
11090;SDS011;5599;52.210;21.046;2022-11-20T14:23:24;37.23;;;26.80;;
11090;SDS011;5599;52.210;21.046;2022-11-20T14:25:57;37.33;;;25.97;;
11090;SDS011;5599;52.210;21.046;2022-11-20T14:28:33;37.53;;;26.77;;
11090;SDS011;5599;52.210;21.046;2022-11-20T14:31:03;32.27;;;24.73;;
11090;SDS011;5599;52.210;21.046;2022-11-20T14:33:46;33.10;;;25.37;;
11090;SDS011;5599;52.210;21.046;2022-11-20T14:36:17;35.37;;;25.90;;
11090;SDS011;5599;52.210;21.046;2022-11-20T14:38:51;37.03;;;26.90;;
11090;SDS011;5599;52.210;21.046;2022-11-20T14:41:23;35.87;;;25.93;;
11090;SDS011;5599;52.210;21.046;2022-11-20T14:43:54;35.63;;;26.07;;
11090;SDS011;5599;52.210;21.046;2022-11-20T14:46:26;38.00;;;26.03;;
11090;SDS011;5599;52.210;21.046;2022-11-20T14:49:00;36.27;;;27.30;;
11090;SDS011;5599;52.210;21.046;2022-11-20T14:51:34;34.37;;;25.67;;
11090;SDS011;5599;52.210;21.046;2022-11-20T14:54:11;35.63;;;24.93;;
11090;SDS011;5599;52.210;21.046;2022-11-20T14:56:53;35.40;;;25.17;;
11090;SDS011;5599;52.210;21.046;2022-11-20T14:59:24;32.73;;;25.07;;
11090;SDS011;5599;52.210;21.046;2022-11-20T15:01:57;36.03;;;25.33;;